createdAt,value
2023-01-02T05:16:55.420Z,100059.19
2023-01-02T05:19:22.062Z,100058.31
2023-01-02T05:22:07.398Z,100066.66
2023-01-02T05:24:33.892Z,100064.81
2023-01-02T05:27:00.448Z,100067.34
2023-01-02T05:29:27.011Z,100074.06
2023-01-02T05:31:53.495Z,100079.94
2023-01-02T05:34:19.980Z,100082.31
2023-01-02T05:36:46.460Z,100077.34
2023-01-02T05:39:13.973Z,100076.81
2023-01-02T05:41:41.939Z,100089.44
2023-01-02T05:44:10.150Z,100084.81
2023-01-02T05:46:38.997Z,100096.19
2023-01-02T05:49:07.306Z,100100.09
2023-01-02T05:51:34.257Z,100098.00
2023-01-02T05:54:01.655Z,100099.19
2023-01-02T05:56:29.655Z,100106.22
2023-01-02T05:58:56.500Z,100100.75
2023-01-02T06:01:29.340Z,100097.94
2023-01-02T06:03:58.710Z,100101.97
2023-01-02T06:06:37.328Z,100095.50
2023-01-02T06:09:05.133Z,100101.47
2023-01-02T06:11:32.003Z,100092.97
2023-01-02T06:13:58.793Z,100099.84
2023-01-02T06:16:26.397Z,100099.84
2023-01-02T06:18:52.990Z,100100.84
2023-01-02T06:21:21.324Z,100103.63
2023-01-02T06:23:48.647Z,100109.03
2023-01-02T06:26:17.975Z,100109.97
2023-01-02T06:28:45.979Z,100120.47
2023-01-02T06:31:15.337Z,100115.72
2023-01-02T06:33:42.849Z,100100.06
2023-01-02T06:36:20.842Z,100105.75
2023-01-02T06:38:47.619Z,100118.06
2023-01-02T06:41:15.226Z,100113.28
2023-01-02T06:43:43.999Z,100102.47
2023-01-02T06:46:11.888Z,100104.63
2023-01-02T06:48:42.478Z,100105.13
2023-01-02T06:51:15.865Z,100109.59
2023-01-02T06:53:43.586Z,100121.78
2023-01-02T06:56:11.560Z,100119.31
2023-01-02T06:58:39.028Z,100121.56
2023-01-02T07:01:13.754Z,100110.16
2023-01-02T07:03:40.586Z,100117.75
2023-01-02T07:06:10.120Z,100113.03
2023-01-02T07:08:36.778Z,100106.00
2023-01-02T07:11:10.635Z,100105.22
2023-01-02T07:13:37.645Z,100097.38
2023-01-02T07:16:06.806Z,100089.09
2023-01-02T07:18:34.623Z,100098.59
2023-01-02T07:21:18.339Z,100107.28
2023-01-02T07:23:46.484Z,100095.84
2023-01-02T07:26:19.042Z,100102.50
2023-01-02T07:28:48.615Z,100108.56
2023-01-02T07:31:17.519Z,100108.56
2023-01-02T07:34:02.527Z,100094.91
2023-01-02T07:36:29.056Z,100091.09
2023-01-02T07:38:56.125Z,100088.56
2023-01-02T07:41:24.630Z,100079.38
2023-01-02T07:43:53.237Z,100090.75
2023-01-02T07:46:20.723Z,100102.13
2023-01-02T07:48:47.937Z,100111.03
2023-01-02T07:51:17.385Z,100114.56
2023-01-02T07:53:47.635Z,100123.78
2023-01-02T07:56:14.107Z,100112.03
2023-01-02T07:58:40.615Z,100125.19
2023-01-02T08:01:09.986Z,100136.75
2023-01-02T08:03:37.131Z,100125.03
2023-01-02T08:06:09.426Z,100138.41
2023-01-02T08:08:36.802Z,100137.53
2023-01-02T08:11:05.408Z,100126.56
2023-01-02T08:13:32.333Z,100134.09
2023-01-02T08:15:59.086Z,100147.81
2023-01-02T08:18:25.633Z,100147.50
2023-01-02T08:20:52.135Z,100125.66
2023-01-02T08:23:21.355Z,100131.09
2023-01-02T08:25:50.337Z,100147.31
2023-01-02T08:28:20.817Z,100157.91
2023-01-02T08:30:47.440Z,100168.88
2023-01-02T08:33:14.031Z,100172.88
2023-01-02T08:35:45.618Z,100177.50
2023-01-02T08:38:12.151Z,100183.13
2023-01-02T08:41:20.196Z,100180.78
2023-01-02T08:43:52.633Z,100180.47
2023-01-02T08:46:23.596Z,100182.53
2023-01-02T08:49:06.321Z,100176.06
2023-01-02T08:51:36.797Z,100173.56
2023-01-02T08:54:11.995Z,100184.53
2023-01-02T08:57:00.408Z,100184.47
2023-01-02T08:59:30.505Z,100190.00
2023-01-02T09:01:59.943Z,100191.69
2023-01-02T09:04:37.323Z,100192.84
2023-01-02T09:07:55.828Z,100194.19
2023-01-02T09:11:15.776Z,100196.13
2023-01-02T09:22:32.629Z,100219.38
2023-01-02T09:24:59.280Z,100228.59
2023-01-02T09:27:25.771Z,100230.44
2023-01-02T09:29:54.189Z,100223.25
2023-01-02T09:32:20.954Z,100229.69
2023-01-02T09:34:51.546Z,100227.19
2023-01-02T09:37:18.069Z,100227.03
2023-01-02T09:39:50.714Z,100227.34
2023-01-02T09:42:18.469Z,100223.09
2023-01-02T09:44:56.412Z,100222.78
2023-01-02T09:48:01.791Z,100224.22
2023-01-02T09:50:38.544Z,100242.34
2023-01-02T09:53:14.517Z,100244.00
2023-01-02T09:56:21.044Z,100243.47
2023-01-02T09:59:05.801Z,100247.69
2023-01-02T10:01:38.986Z,100259.06
2023-01-02T10:04:35.040Z,100262.50
2023-01-02T10:07:17.844Z,100262.06
2023-01-02T10:09:55.296Z,100267.91
2023-01-02T10:13:01.451Z,100270.50
2023-01-02T10:15:35.643Z,100265.16
2023-01-02T10:18:31.271Z,100262.59
2023-01-02T10:21:09.241Z,100260.16
2023-01-02T10:23:47.731Z,100257.28
2023-01-02T10:26:21.217Z,100257.81
2023-01-02T10:30:01.826Z,100260.78
2023-01-02T10:36:57.128Z,100266.56
2023-01-02T10:39:39.237Z,100261.59
2023-01-02T10:42:08.226Z,100267.13
2023-01-02T10:44:48.069Z,100267.56
2023-01-02T10:47:33.252Z,100263.31
2023-01-02T10:50:49.898Z,100254.66
2023-01-02T10:53:29.581Z,100264.22
2023-01-02T10:56:38.903Z,100264.31
2023-01-02T10:59:42.111Z,100268.16
2023-01-02T11:02:52.728Z,100264.31
2023-01-02T11:05:53.942Z,100272.91
2023-01-02T11:09:08.257Z,100286.28
2023-01-02T11:12:41.294Z,100275.66
2023-01-02T11:16:06.478Z,100280.31
2023-01-02T11:18:36.229Z,100273.44
2023-01-02T11:21:06.158Z,100280.47
2023-01-02T11:23:40.623Z,100284.19
2023-01-02T11:26:12.165Z,100274.91
2023-01-02T11:28:40.873Z,100287.31
2023-01-02T11:31:17.684Z,100286.59
2023-01-02T11:34:07.473Z,100281.13
2023-01-02T11:36:34.064Z,100269.06
2023-01-02T11:39:20.703Z,100262.97
2023-01-02T11:42:36.016Z,100260.47
2023-01-02T11:45:13.613Z,100270.47
2023-01-02T11:48:06.074Z,100269.88
2023-01-02T12:20:41.755Z,100307.00
2023-01-02T12:23:41.308Z,100303.13
2023-01-02T12:26:15.916Z,100296.88
2023-01-02T12:29:48.007Z,100301.03
2023-01-02T12:32:58.717Z,100306.09
2023-01-02T12:36:19.851Z,100305.47
2023-01-02T12:39:17.545Z,100304.34
2023-01-02T12:42:03.780Z,100304.09
2023-01-02T12:45:05.744Z,100306.78
2023-01-02T12:47:57.521Z,100304.94
2023-01-02T12:50:38.391Z,100311.19
2023-01-02T12:53:37.595Z,100319.31
2023-01-02T12:56:27.062Z,100327.34
2023-01-02T12:59:02.920Z,100321.94
2023-01-02T13:01:37.182Z,100317.81
2023-01-02T13:04:31.540Z,100319.28
2023-01-02T13:07:04.069Z,100324.53
2023-01-02T13:09:41.653Z,100330.22
2023-01-02T13:12:30.139Z,100322.88
2023-01-02T13:15:12.767Z,100324.53
2023-01-02T13:17:52.003Z,100313.50
2023-01-02T13:20:55.323Z,100315.69
2023-01-02T13:23:43.487Z,100329.13
2023-01-02T13:26:16.865Z,100330.56
2023-01-02T13:29:13.472Z,100332.50
2023-01-02T13:31:47.684Z,100330.03
2023-01-02T13:34:32.876Z,100334.59
2023-01-02T13:43:45.599Z,100319.09
2023-01-02T13:47:00.978Z,100317.16
2023-01-02T13:49:19.163Z,100315.91
2023-01-02T13:51:46.452Z,100315.81
2023-01-02T13:54:20.610Z,100321.16
2023-01-02T13:57:15.516Z,100328.94
2023-01-02T13:59:58.660Z,100320.59
2023-01-02T14:02:28.153Z,100319.38
2023-01-02T14:04:57.104Z,100328.19
2023-01-02T14:07:31.891Z,100331.28
2023-01-02T14:10:13.936Z,100343.59
2023-01-02T14:13:10.233Z,100341.88
2023-01-02T14:16:16.315Z,100349.28
2023-01-02T14:18:46.865Z,100343.25
2023-01-02T14:21:18.429Z,100351.03
2023-01-02T14:24:16.374Z,100352.41
2023-01-02T14:27:18.280Z,100356.31
2023-01-02T14:38:59.560Z,100365.91
2023-01-02T14:42:11.137Z,100378.56
2023-01-02T14:44:44.525Z,100400.03
2023-01-02T14:47:52.341Z,100403.91
2023-01-02T14:50:30.666Z,100412.44
2023-01-02T14:53:05.619Z,100402.25
2023-01-02T14:55:41.376Z,100394.31
2023-01-02T14:58:37.957Z,100369.25
2023-01-02T15:01:05.903Z,100362.84
2023-01-02T15:03:57.430Z,100374.13
2023-01-02T15:06:42.279Z,100397.66
2023-01-02T15:09:39.908Z,100407.72
2023-01-02T15:12:42.551Z,100415.41
2023-01-02T15:15:18.322Z,100418.13
2023-01-02T15:17:49.595Z,100420.91
2023-01-02T15:20:26.445Z,100416.28
2023-01-02T15:22:56.401Z,100427.28
2023-01-02T15:25:31.755Z,100433.00
2023-01-02T15:27:58.689Z,100439.84
2023-01-02T15:31:30.684Z,100448.91
2023-01-02T15:33:58.011Z,100450.13
2023-01-02T15:36:40.303Z,100451.78
2023-01-02T15:39:19.818Z,100451.75
2023-01-02T15:41:50.156Z,100464.66
2023-01-02T15:45:04.821Z,100478.34
2023-01-02T15:47:31.979Z,100494.69
2023-01-02T15:50:10.700Z,100506.53
2023-01-02T15:52:39.300Z,100517.69
2023-01-02T15:55:18.205Z,100515.97
2023-01-02T15:58:17.545Z,100516.81
2023-01-02T16:00:53.571Z,100521.81
2023-01-02T16:04:01.614Z,100522.78
2023-01-02T16:06:26.272Z,100524.19
2023-01-02T16:08:56.963Z,100520.31
2023-01-02T16:11:25.648Z,100535.94
2023-01-02T16:14:33.441Z,100542.75
2023-01-02T16:17:24.502Z,100532.72
2023-01-02T16:19:58.898Z,100529.16
2023-01-02T16:22:42.432Z,100520.50
2023-01-02T16:25:20.794Z,100508.38
2023-01-02T16:27:50.358Z,100503.06
2023-01-02T16:30:28.421Z,100510.78
2023-01-02T16:32:55.829Z,100497.91
2023-01-02T16:35:32.601Z,100500.16
2023-01-02T16:38:19.658Z,100511.47
2023-01-02T16:41:12.304Z,100502.00
2023-01-02T16:43:47.312Z,100501.47
2023-01-02T16:46:16.040Z,100521.22
2023-01-02T16:49:05.451Z,100531.75
2023-01-02T16:51:32.506Z,100552.53
2023-01-02T16:54:24.768Z,100568.66
2023-01-02T16:56:58.787Z,100570.53
2023-01-02T16:59:25.537Z,100566.75
2023-01-02T17:01:52.304Z,100568.66
2023-01-02T17:04:18.987Z,100578.94
2023-01-02T17:06:45.615Z,100592.94
2023-01-02T17:09:12.278Z,100603.22
2023-01-02T17:12:00.633Z,100615.31
2023-01-02T17:14:28.570Z,100631.47
2023-01-02T17:16:56.802Z,100631.94
2023-01-02T17:19:23.859Z,100635.50
2023-01-02T17:21:51.102Z,100642.81
2023-01-02T17:27:11.499Z,100644.66
2023-01-02T17:29:38.122Z,100646.44
2023-01-02T17:32:04.916Z,100661.63
2023-01-02T17:34:32.108Z,100663.78
2023-01-02T17:36:58.667Z,100671.59
2023-01-02T17:39:26.098Z,100675.97
2023-01-02T17:41:52.556Z,100671.34
2023-01-02T17:44:19.343Z,100667.34
2023-01-02T17:47:15.653Z,100673.00
2023-01-02T17:49:33.151Z,100677.97
2023-01-02T17:51:59.658Z,100690.25
2023-01-02T17:54:26.135Z,100696.38
2023-01-02T17:56:52.719Z,100697.72
2023-01-02T17:59:19.824Z,100704.38
2023-01-02T18:01:46.935Z,100710.78
2023-01-02T18:04:14.111Z,100709.44
2023-01-02T18:06:41.059Z,100719.06
2023-01-02T18:09:08.150Z,100718.03
2023-01-02T18:11:35.230Z,100716.81
2023-01-02T18:14:02.932Z,100726.72
2023-01-02T18:16:34.120Z,100729.38
2023-01-02T18:19:04.904Z,100734.19
2023-01-02T18:21:33.662Z,100729.22
2023-01-02T18:24:02.876Z,100736.56
2023-01-02T18:26:30.696Z,100744.56
2023-01-02T18:29:04.259Z,100748.28
2023-01-02T18:31:39.729Z,100752.88
2023-01-02T18:37:23.019Z,100760.13
2023-01-02T18:39:50.155Z,100771.31
2023-01-02T18:42:26.584Z,100774.25
2023-01-02T18:44:55.078Z,100780.19
2023-01-02T18:47:32.476Z,100776.69
2023-01-02T18:50:23.656Z,100769.09
2023-01-02T18:52:51.691Z,100783.56
2023-01-02T18:55:27.751Z,100786.41
2023-01-02T18:58:07.505Z,100798.53
2023-01-02T19:00:35.481Z,100802.75
2023-01-02T19:03:26.892Z,100804.53
2023-01-02T19:05:54.324Z,100814.00
2023-01-02T19:08:37.258Z,100815.94
2023-01-02T19:12:08.469Z,100820.72
2023-01-02T19:14:40.837Z,100820.38
2023-01-02T19:17:22.909Z,100831.69
2023-01-02T19:20:26.299Z,100834.41
2023-01-02T19:22:52.878Z,100836.78
2023-01-02T19:25:22.884Z,100834.72
2023-01-02T19:27:50.941Z,100834.66
2023-01-02T19:30:30.160Z,100842.53
2023-01-02T19:32:57.509Z,100831.63
2023-01-02T19:35:38.466Z,100838.56
2023-01-02T19:38:27.306Z,100839.16
2023-01-02T19:40:54.017Z,100831.34
2023-01-02T19:43:20.819Z,100850.91
2023-01-02T19:45:47.895Z,100852.00
2023-01-02T19:48:18.249Z,100852.00
2023-01-02T19:50:45.346Z,100853.56
2023-01-02T19:53:11.788Z,100862.00
2023-01-02T19:55:38.408Z,100860.28
2023-01-02T19:58:05.094Z,100861.09
2023-01-02T20:00:31.917Z,100871.41
2023-01-02T20:02:58.619Z,100882.38
2023-01-02T20:05:27.258Z,100873.75
2023-01-02T20:07:54.295Z,100880.56
2023-01-02T20:10:21.543Z,100879.13
2023-01-02T20:12:48.093Z,100879.91
2023-01-02T20:15:17.728Z,100881.72
2023-01-02T20:17:45.208Z,100888.09
2023-01-02T20:20:19.423Z,100893.28
2023-01-02T20:22:46.760Z,100894.97
2023-01-02T20:25:15.785Z,100895.00
2023-01-02T20:27:42.380Z,100904.03
2023-01-02T20:30:09.794Z,100904.19
2023-01-02T20:32:36.565Z,100907.56
2023-01-02T20:35:03.743Z,100910.19
2023-01-02T20:37:31.080Z,100911.75
2023-01-02T20:39:57.545Z,100911.47
2023-01-02T20:42:24.118Z,100906.91
2023-01-02T20:44:50.700Z,100919.63
2023-01-02T20:47:17.669Z,100920.41
2023-01-02T20:49:44.147Z,100920.44
2023-01-02T20:52:10.699Z,100918.81
2023-01-02T20:54:37.632Z,100923.78
2023-01-02T20:57:04.291Z,100931.84
2023-01-02T20:59:30.777Z,100942.38
2023-01-02T21:01:57.336Z,100939.53
2023-01-02T21:04:34.112Z,100940.41
2023-01-02T21:07:03.777Z,100946.63
2023-01-02T21:09:30.262Z,100947.44
2023-01-02T21:11:56.742Z,100948.59
2023-01-02T21:14:23.909Z,100954.50
2023-01-02T21:16:50.532Z,100962.25
2023-01-02T21:19:17.031Z,100963.47
2023-01-02T21:21:43.557Z,100966.09
2023-01-02T21:24:10.071Z,100970.59
2023-01-02T21:26:36.667Z,100972.78
2023-01-02T21:29:04.663Z,100976.34
2023-01-02T21:31:31.168Z,100982.72
2023-01-02T21:34:00.771Z,100981.66
2023-01-02T21:36:30.356Z,100987.00
2023-01-02T21:38:57.277Z,100990.91
2023-01-02T21:41:42.928Z,100998.13
2023-01-02T21:44:09.583Z,101006.56
2023-01-02T21:46:36.104Z,101011.63
2023-01-02T21:49:02.666Z,101015.25
2023-01-02T21:51:32.686Z,101022.28
2023-01-02T21:53:59.866Z,101017.78
2023-01-02T21:56:26.433Z,101018.19
2023-01-02T21:58:53.120Z,101026.94
2023-01-02T22:01:19.701Z,101020.28
2023-01-02T22:03:46.366Z,101022.97
2023-01-02T22:06:12.892Z,101024.78
2023-01-02T22:08:39.373Z,101025.59
2023-01-02T22:11:24.582Z,101024.75
2023-01-02T22:13:50.989Z,101034.31
2023-01-02T22:16:17.507Z,101032.66
2023-01-02T22:18:43.983Z,101044.78
2023-01-02T22:21:10.513Z,101046.66
2023-01-02T22:23:37.008Z,101061.53
2023-01-02T22:26:03.517Z,101070.19
2023-01-02T22:28:29.983Z,101071.97
2023-01-02T22:30:56.482Z,101070.97
2023-01-02T22:33:23.007Z,101066.69
2023-01-02T22:35:49.589Z,101071.97
2023-01-02T22:38:16.362Z,101070.19
2023-01-02T22:41:47.202Z,101079.00
2023-01-02T22:44:22.620Z,101083.25
2023-01-02T22:46:52.867Z,101092.06
2023-01-02T22:49:27.158Z,101092.00
2023-01-02T22:52:06.942Z,101098.19
2023-01-02T22:54:33.877Z,101091.06
2023-01-02T22:57:00.333Z,101100.72
2023-01-02T22:59:26.791Z,101106.66
